createdAt,value
2023-02-04T00:00:38.975Z,4.40
2023-02-04T00:03:07.416Z,4.50
2023-02-04T00:05:35.808Z,4.50
2023-02-04T00:08:07.253Z,4.50
2023-02-04T00:10:37.901Z,4.50
2023-02-04T00:13:06.708Z,4.60
2023-02-04T00:15:34.770Z,4.50
2023-02-04T00:18:03.272Z,4.60
2023-02-04T00:20:31.584Z,4.60
2023-02-04T00:22:59.767Z,4.70
2023-02-04T00:25:28.489Z,4.70
2023-02-04T00:27:57.945Z,4.70
2023-02-04T00:30:25.901Z,4.70
2023-02-04T00:32:54.952Z,4.70
2023-02-04T00:35:23.321Z,4.80
2023-02-04T00:37:52.151Z,4.70
2023-02-04T00:40:20.435Z,4.80
2023-02-04T00:42:48.499Z,4.80
2023-02-04T00:45:17.961Z,4.80
2023-02-04T00:47:45.946Z,4.70
2023-02-04T00:50:14.464Z,4.80
2023-02-04T00:52:42.437Z,4.70
2023-02-04T00:55:12.160Z,4.70
2023-02-04T00:57:40.318Z,4.70
2023-02-04T01:00:09.484Z,4.70
2023-02-04T01:02:40.887Z,4.60
2023-02-04T01:05:10.425Z,4.60
2023-02-04T01:07:38.663Z,4.50
2023-02-04T01:10:07.245Z,4.60
2023-02-04T01:12:35.611Z,4.50
2023-02-04T01:15:04.642Z,4.50
2023-02-04T01:17:32.724Z,4.40
2023-02-04T01:20:02.147Z,4.40
2023-02-04T01:22:30.102Z,4.50
2023-02-04T01:24:58.141Z,4.50
2023-02-04T01:27:26.801Z,4.50
2023-02-04T01:29:54.802Z,4.40
2023-02-04T01:32:22.816Z,4.40
2023-02-04T01:34:50.826Z,4.40
2023-02-04T01:37:20.253Z,4.30
2023-02-04T01:39:49.345Z,4.30
2023-02-04T01:42:17.344Z,4.30
2023-02-04T01:44:45.334Z,4.20
2023-02-04T01:47:13.618Z,4.20
2023-02-04T01:49:42.028Z,4.10
2023-02-04T01:52:11.865Z,4.00
2023-02-04T01:54:42.309Z,4.10
2023-02-04T01:57:15.289Z,4.00
2023-02-04T01:59:44.829Z,4.10
2023-02-04T02:02:39.852Z,4.10
2023-02-04T02:05:08.915Z,4.10
2023-02-04T02:07:37.542Z,4.10
2023-02-04T02:10:10.447Z,4.10
2023-02-04T02:12:39.142Z,4.10
2023-02-04T02:15:09.106Z,4.10
2023-02-04T02:17:37.917Z,4.10
2023-02-04T02:20:08.990Z,4.00
2023-02-04T02:22:43.185Z,4.00
2023-02-04T02:25:15.009Z,4.10
2023-02-04T02:27:43.675Z,4.10
2023-02-04T02:30:15.008Z,4.10
2023-02-04T02:32:43.747Z,4.10
2023-02-04T02:35:12.484Z,4.20
2023-02-04T02:37:41.083Z,4.20
2023-02-04T02:40:10.799Z,4.20
2023-02-04T02:42:40.586Z,4.20
2023-02-04T02:45:17.022Z,4.20
2023-02-04T02:47:45.233Z,4.20
2023-02-04T02:50:18.210Z,4.20
2023-02-04T02:52:46.327Z,4.20
2023-02-04T02:55:20.027Z,4.30
2023-02-04T02:57:50.758Z,4.30
2023-02-04T03:00:23.040Z,4.20
2023-02-04T03:02:56.748Z,4.10
2023-02-04T03:05:25.858Z,4.10
2023-02-04T03:07:54.385Z,4.00
2023-02-04T03:10:22.347Z,3.90
2023-02-04T03:12:51.748Z,3.90
2023-02-04T03:15:19.886Z,3.80
2023-02-04T03:17:48.348Z,3.80
2023-02-04T03:20:17.591Z,3.80
2023-02-04T03:22:45.648Z,3.80
2023-02-04T03:25:13.719Z,3.80
2023-02-04T03:27:41.815Z,3.80
2023-02-04T03:30:12.230Z,3.70
2023-02-04T03:32:41.872Z,3.70
2023-02-04T03:35:10.097Z,3.70
2023-02-04T03:37:38.122Z,3.70
2023-02-04T03:40:06.974Z,3.70
2023-02-04T03:42:34.997Z,3.60
2023-02-04T03:45:03.956Z,3.60
2023-02-04T03:47:33.479Z,3.50
2023-02-04T03:50:01.430Z,3.40
2023-02-04T03:52:29.369Z,3.30
2023-02-04T03:54:57.355Z,3.30
2023-02-04T03:57:27.029Z,3.20
2023-02-04T03:59:54.947Z,3.10
2023-02-04T04:02:22.949Z,3.00
2023-02-04T04:04:52.272Z,3.00
2023-02-04T04:07:20.272Z,2.90
2023-02-04T04:09:48.412Z,2.90
2023-02-04T04:12:16.412Z,2.90
2023-02-04T04:14:44.425Z,2.80
2023-02-04T04:17:12.396Z,2.80
2023-02-04T04:19:40.372Z,2.80
2023-02-04T04:22:13.018Z,2.80
2023-02-04T04:24:41.735Z,2.80
2023-02-04T04:27:09.948Z,2.90
2023-02-04T04:29:37.995Z,2.90
2023-02-04T04:32:06.294Z,2.90
2023-02-04T04:34:34.929Z,3.00
2023-02-04T04:37:03.239Z,3.00
2023-02-04T04:39:32.544Z,3.10
2023-02-04T04:42:00.547Z,3.10
2023-02-04T04:44:28.519Z,3.20
2023-02-04T04:46:56.723Z,3.20
2023-02-04T04:49:25.370Z,3.20
2023-02-04T04:51:53.345Z,3.30
2023-02-04T04:54:21.321Z,3.20
2023-02-04T04:56:50.693Z,3.20
2023-02-04T04:59:19.106Z,3.20
2023-02-04T05:01:47.122Z,3.20
2023-02-04T05:04:15.254Z,3.20
2023-02-04T05:06:43.267Z,3.30
2023-02-04T05:09:11.297Z,3.20
2023-02-04T05:11:39.501Z,3.20
2023-02-04T05:14:08.810Z,3.30
2023-02-04T05:16:36.877Z,3.30
2023-02-04T05:19:04.854Z,3.30
2023-02-04T05:21:33.007Z,3.30
2023-02-04T05:24:02.045Z,3.30
2023-02-04T05:26:31.338Z,3.30
2023-02-04T05:29:01.004Z,3.30
2023-02-04T05:31:30.563Z,3.30
2023-02-04T05:33:58.683Z,3.30
2023-02-04T05:36:27.268Z,3.30
2023-02-04T05:38:55.267Z,3.30
2023-02-04T05:41:23.216Z,3.30
2023-02-04T05:43:51.187Z,3.40
2023-02-04T05:46:19.181Z,3.40
2023-02-04T05:48:49.103Z,3.40
2023-02-04T05:51:17.077Z,3.40
2023-02-04T05:53:45.054Z,3.40
2023-02-04T05:56:13.056Z,3.40
2023-02-04T05:58:40.979Z,3.40
2023-02-04T06:01:09.203Z,3.40
2023-02-04T06:03:37.241Z,3.40
2023-02-04T06:06:07.023Z,3.40
2023-02-04T06:08:34.995Z,3.40
2023-02-04T06:11:02.964Z,3.40
2023-02-04T06:13:31.281Z,3.40
2023-02-04T06:15:59.274Z,3.40
2023-02-04T06:18:27.320Z,3.30
2023-02-04T06:20:55.365Z,3.30
2023-02-04T06:23:24.696Z,3.30
2023-02-04T06:25:53.128Z,3.30
2023-02-04T06:28:21.145Z,3.30
2023-02-04T06:30:49.552Z,3.30
2023-02-04T06:33:18.706Z,3.40
2023-02-04T06:35:46.638Z,3.40
2023-02-04T06:38:14.982Z,3.40
2023-02-04T06:40:44.430Z,3.40
2023-02-04T06:43:12.389Z,3.30
2023-02-04T06:45:40.333Z,3.40
2023-02-04T06:48:08.384Z,3.40
2023-02-04T06:50:36.590Z,3.40
2023-02-04T06:53:04.637Z,3.40
2023-02-04T06:55:32.574Z,3.40
2023-02-04T06:58:02.493Z,3.40
2023-02-04T07:00:31.619Z,3.40
2023-02-04T07:03:00.196Z,3.40
2023-02-04T07:05:28.377Z,3.50
2023-02-04T07:07:56.475Z,3.50
2023-02-04T07:10:24.424Z,3.40
2023-02-04T07:12:52.390Z,3.50
2023-02-04T07:15:22.134Z,3.50
2023-02-04T07:17:50.177Z,3.50
2023-02-04T07:20:18.620Z,3.50
2023-02-04T07:22:46.590Z,3.60
2023-02-04T07:25:17.823Z,3.60
2023-02-04T07:27:46.418Z,3.60
2023-02-04T07:30:15.142Z,3.60
2023-02-04T07:32:44.560Z,3.60
2023-02-04T07:35:13.579Z,3.60
2023-02-04T07:37:41.773Z,3.60
2023-02-04T07:40:12.257Z,3.70
2023-02-04T07:42:40.374Z,3.70
2023-02-04T07:45:09.700Z,3.70
2023-02-04T07:47:37.753Z,3.70
2023-02-04T07:50:08.023Z,3.80
2023-02-04T07:52:39.481Z,3.70
2023-02-04T07:55:10.981Z,3.60
2023-02-04T07:57:39.027Z,3.60
2023-02-04T08:00:07.830Z,3.60
2023-02-04T08:02:35.835Z,3.60
2023-02-04T08:05:04.244Z,3.60
2023-02-04T08:07:33.618Z,3.60
2023-02-04T08:10:01.566Z,3.70
2023-02-04T08:12:30.302Z,3.70
2023-02-04T08:14:58.426Z,3.80
2023-02-04T08:17:26.612Z,3.90
2023-02-04T08:19:54.843Z,4.00
2023-02-04T08:22:22.895Z,4.10
2023-02-04T08:24:52.502Z,4.20
2023-02-04T08:27:20.560Z,4.30
2023-02-04T08:29:49.452Z,4.40
2023-02-04T08:32:17.457Z,4.40
2023-02-04T08:34:45.424Z,4.30
2023-02-04T08:37:13.474Z,4.20
2023-02-04T08:39:46.179Z,4.10
2023-02-04T08:42:15.935Z,4.00
2023-02-04T08:44:44.287Z,4.00
2023-02-04T08:47:12.530Z,3.90
2023-02-04T08:49:40.551Z,3.90
2023-02-04T08:52:08.773Z,3.60
2023-02-04T08:54:37.559Z,3.00
2023-02-04T08:57:05.598Z,2.70
2023-02-04T08:59:35.949Z,2.40
2023-02-04T09:02:04.122Z,2.10
2023-02-04T09:04:32.190Z,2.00
2023-02-04T09:07:00.364Z,1.80
2023-02-04T09:09:28.393Z,1.70
2023-02-04T09:11:56.548Z,1.50
2023-02-04T09:14:24.556Z,1.40
2023-02-04T09:16:53.909Z,1.30
2023-02-04T09:19:25.758Z,1.10
2023-02-04T09:21:54.234Z,1.00
2023-02-04T09:24:23.604Z,1.00
2023-02-04T09:26:51.908Z,1.00
2023-02-04T09:29:19.939Z,1.20
2023-02-04T09:31:48.473Z,1.40
2023-02-04T09:34:17.960Z,1.50
2023-02-04T09:36:46.014Z,1.70
2023-02-04T09:39:14.100Z,1.90
2023-02-04T09:41:43.170Z,1.80
2023-02-04T09:44:16.733Z,1.90
2023-02-04T09:46:50.680Z,2.10
2023-02-04T09:49:20.431Z,2.20
2023-02-04T09:51:49.180Z,2.30
2023-02-04T09:54:19.909Z,2.40
2023-02-04T09:56:48.678Z,2.60
2023-02-04T09:59:19.919Z,2.80
2023-02-04T10:01:53.146Z,2.80
2023-02-04T10:04:24.112Z,2.70
2023-02-04T10:06:52.309Z,2.70
2023-02-04T10:09:20.524Z,2.70
2023-02-04T10:11:49.718Z,2.50
2023-02-04T10:14:21.493Z,2.60
2023-02-04T10:16:54.048Z,2.70
2023-02-04T10:19:24.315Z,2.80
2023-02-04T10:21:53.045Z,3.00
2023-02-04T10:24:26.297Z,3.40
2023-02-04T10:26:55.133Z,3.50
2023-02-04T10:29:25.822Z,4.00
2023-02-04T10:31:54.641Z,3.90
2023-02-04T10:34:25.756Z,3.80
2023-02-04T10:36:58.231Z,3.70
2023-02-04T10:39:28.358Z,3.70
2023-02-04T10:41:57.917Z,3.80
2023-02-04T10:44:28.974Z,3.90
2023-02-04T10:47:02.242Z,4.00
2023-02-04T10:49:32.382Z,4.30
2023-02-04T10:52:02.233Z,4.40
2023-02-04T10:54:38.631Z,4.20
2023-02-04T10:57:16.171Z,4.40
2023-02-04T10:59:45.121Z,4.30
2023-02-04T11:02:37.238Z,4.40
2023-02-04T11:05:13.295Z,4.10
2023-02-04T11:07:42.107Z,4.10
2023-02-04T11:10:15.662Z,4.20
2023-02-04T11:12:45.964Z,4.10
2023-02-04T11:15:40.764Z,4.00
2023-02-04T11:18:12.646Z,3.90
2023-02-04T11:20:42.454Z,4.00
2023-02-04T11:23:30.792Z,4.00
2023-02-04T11:26:04.887Z,4.10
2023-02-04T11:28:46.117Z,4.20
2023-02-04T11:31:26.586Z,4.10
2023-02-04T11:34:13.912Z,4.40
2023-02-04T11:37:04.875Z,4.40
2023-02-04T11:39:37.048Z,4.60
2023-02-04T11:42:06.579Z,4.80
2023-02-04T11:44:35.439Z,5.10
2023-02-04T11:47:08.042Z,5.00
2023-02-04T11:49:38.579Z,5.10
2023-02-04T11:52:13.836Z,5.10
2023-02-04T11:54:42.056Z,5.30
2023-02-04T11:57:12.515Z,5.00
2023-02-04T11:59:40.914Z,5.20
2023-02-04T12:02:17.666Z,5.40
2023-02-04T12:04:57.067Z,5.30
2023-02-04T12:07:29.006Z,5.30
2023-02-04T12:10:15.712Z,5.50
2023-02-04T12:12:45.396Z,5.80
2023-02-04T12:15:18.443Z,5.90
2023-02-04T12:17:47.255Z,6.00
2023-02-04T12:20:16.095Z,6.10
2023-02-04T12:22:45.418Z,6.40
2023-02-04T12:25:19.306Z,6.80
2023-02-04T12:27:47.346Z,6.50
2023-02-04T12:30:15.798Z,6.10
2023-02-04T12:32:44.165Z,5.90
2023-02-04T12:35:12.186Z,5.90
2023-02-04T12:37:40.388Z,6.00
2023-02-04T12:40:15.035Z,5.90
2023-02-04T12:42:43.166Z,5.90
2023-02-04T12:45:12.417Z,5.80
2023-02-04T12:47:41.249Z,6.20
2023-02-04T12:50:11.978Z,6.50
2023-02-04T12:52:40.261Z,5.90
2023-02-04T12:55:10.765Z,6.30
2023-02-04T12:57:39.309Z,6.40
2023-02-04T13:00:09.268Z,6.10
2023-02-04T13:02:37.744Z,5.70
2023-02-04T13:05:06.692Z,5.20
2023-02-04T13:07:35.195Z,5.30
2023-02-04T13:10:03.792Z,5.20
2023-02-04T13:12:33.218Z,5.20
2023-02-04T13:15:01.640Z,5.30
2023-02-04T13:17:29.883Z,5.30
2023-02-04T13:19:57.919Z,5.20
2023-02-04T13:22:27.057Z,5.00
2023-02-04T13:24:55.261Z,5.20
2023-02-04T13:27:23.296Z,5.10
2023-02-04T13:29:53.790Z,4.90
2023-02-04T13:32:22.465Z,4.60
2023-02-04T13:34:50.924Z,4.40
2023-02-04T13:37:19.320Z,4.40
2023-02-04T13:39:48.011Z,4.40
2023-02-04T13:42:18.179Z,4.50
2023-02-04T13:44:48.275Z,4.60
2023-02-04T13:47:18.316Z,4.70
2023-02-04T13:49:49.744Z,4.70
2023-02-04T13:52:19.228Z,4.60
2023-02-04T13:54:47.422Z,4.60
2023-02-04T13:57:17.912Z,4.70
2023-02-04T13:59:48.590Z,4.70
2023-02-04T14:02:23.576Z,4.60
2023-02-04T14:04:54.052Z,4.70
2023-02-04T14:07:22.254Z,4.60
2023-02-04T14:09:50.717Z,4.80
2023-02-04T14:12:19.020Z,4.90
2023-02-04T14:14:50.054Z,4.60
2023-02-04T14:17:18.265Z,4.50
2023-02-04T14:19:49.978Z,4.50
2023-02-04T14:22:18.510Z,4.50
2023-02-04T14:24:47.636Z,4.50
2023-02-04T14:27:15.895Z,4.20
2023-02-04T14:29:43.976Z,4.20
2023-02-04T14:32:12.103Z,4.30
2023-02-04T14:34:40.600Z,4.20
2023-02-04T14:37:09.997Z,5.10
2023-02-04T14:39:38.117Z,5.20
2023-02-04T14:42:07.834Z,4.90
2023-02-04T14:44:36.017Z,4.70
2023-02-04T14:47:04.876Z,4.40
2023-02-04T14:49:34.884Z,4.50
2023-02-04T14:52:03.991Z,4.40
2023-02-04T14:54:33.568Z,4.30
2023-02-04T14:57:01.873Z,4.30
2023-02-04T14:59:30.289Z,4.20
2023-02-04T15:01:58.376Z,4.30
2023-02-04T15:04:26.538Z,4.30
2023-02-04T15:06:54.525Z,4.10
2023-02-04T15:09:22.854Z,4.10
2023-02-04T15:11:52.692Z,4.10
2023-02-04T15:14:20.918Z,3.90
2023-02-04T15:16:49.360Z,3.90
2023-02-04T15:19:18.177Z,3.90
2023-02-04T15:21:46.805Z,3.90
2023-02-04T15:24:15.242Z,3.90
2023-02-04T15:26:43.308Z,3.90
2023-02-04T15:29:13.189Z,3.90
2023-02-04T15:31:41.381Z,3.80
2023-02-04T15:34:09.340Z,3.80
2023-02-04T15:36:37.896Z,3.80
2023-02-04T15:39:05.879Z,3.70
2023-02-04T15:41:33.953Z,3.60
2023-02-04T15:44:01.998Z,3.50
2023-02-04T15:46:31.426Z,3.60
2023-02-04T15:49:00.311Z,3.60
2023-02-04T15:51:28.702Z,3.50
2023-02-04T15:53:58.017Z,3.40
2023-02-04T15:56:26.188Z,3.40
2023-02-04T15:58:54.817Z,3.30
2023-02-04T16:01:23.582Z,3.20
2023-02-04T16:03:56.400Z,3.10
2023-02-04T16:06:25.062Z,3.00
2023-02-04T16:08:53.534Z,3.00
2023-02-04T16:11:21.689Z,2.90
2023-02-04T16:13:50.245Z,2.80
2023-02-04T16:16:18.309Z,2.80
2023-02-04T16:18:46.332Z,2.70
2023-02-04T16:21:15.762Z,2.60
2023-02-04T16:23:43.736Z,2.60
2023-02-04T16:26:11.931Z,2.60
2023-02-04T16:28:40.030Z,2.50
2023-02-04T16:31:09.696Z,2.50
2023-02-04T16:33:38.071Z,2.50
2023-02-04T16:36:10.830Z,2.50
2023-02-04T16:38:43.287Z,2.50
2023-02-04T16:41:14.177Z,2.50
2023-02-04T16:43:42.689Z,2.40
2023-02-04T16:46:12.467Z,2.40
2023-02-04T16:48:41.147Z,2.40
2023-02-04T16:51:11.550Z,2.40
2023-02-04T16:53:41.171Z,2.40
2023-02-04T16:56:09.238Z,2.50
2023-02-04T16:58:38.380Z,2.50
2023-02-04T17:01:07.373Z,2.30
2023-02-04T17:03:36.270Z,2.40
2023-02-04T17:06:04.524Z,2.40
2023-02-04T17:08:32.835Z,2.50
2023-02-04T17:11:19.977Z,2.50
2023-02-04T17:13:48.871Z,2.50
2023-02-04T17:16:18.586Z,2.40
2023-02-04T17:18:46.736Z,2.40
2023-02-04T17:21:15.299Z,2.40
2023-02-04T17:23:44.581Z,2.30
2023-02-04T17:26:17.435Z,2.30
2023-02-04T17:28:46.388Z,2.40
2023-02-04T17:31:14.658Z,2.30
2023-02-04T17:33:42.996Z,2.20
2023-02-04T17:36:13.668Z,2.30
2023-02-04T17:38:42.059Z,2.30
2023-02-04T17:41:10.506Z,2.30
2023-02-04T17:43:40.353Z,2.30
2023-02-04T17:46:08.852Z,2.30
2023-02-04T17:48:37.900Z,2.30
2023-02-04T17:51:07.028Z,2.30
2023-02-04T17:53:38.636Z,2.30
2023-02-04T17:56:11.946Z,2.30
2023-02-04T17:58:42.689Z,2.40
2023-02-04T18:01:15.976Z,2.40
2023-02-04T18:03:46.126Z,2.30
2023-02-04T18:06:21.049Z,2.30
2023-02-04T18:08:49.766Z,2.30
2023-02-04T18:11:21.169Z,2.30
2023-02-04T18:13:51.299Z,2.30
2023-02-04T18:16:27.474Z,2.20
2023-02-04T18:18:57.772Z,2.20
2023-02-04T18:21:27.989Z,2.00
2023-02-04T18:24:07.997Z,2.10
2023-02-04T18:26:45.143Z,2.10
2023-02-04T18:29:30.195Z,2.00
2023-02-04T18:32:01.081Z,2.00
2023-02-04T18:34:35.143Z,1.90
2023-02-04T18:37:29.372Z,1.90
2023-02-04T18:40:08.826Z,1.80
2023-02-04T18:42:40.922Z,1.70
2023-02-04T18:45:22.987Z,1.70
2023-02-04T18:47:51.792Z,1.60
2023-02-04T18:50:30.035Z,1.60
2023-02-04T18:53:01.958Z,1.50
2023-02-04T18:55:34.807Z,1.40
2023-02-04T18:58:28.989Z,1.40
2023-02-04T19:01:01.392Z,1.30
2023-02-04T19:03:32.265Z,1.20
2023-02-04T19:06:25.604Z,1.10
2023-02-04T19:08:54.229Z,1.10
2023-02-04T19:11:35.402Z,1.10
2023-02-04T19:14:13.238Z,1.00
2023-02-04T19:16:43.203Z,1.00
2023-02-04T19:19:31.443Z,1.00
2023-02-04T19:21:59.755Z,0.90
2023-02-04T19:24:30.302Z,0.80
2023-02-04T19:27:00.657Z,0.70
2023-02-04T19:29:39.317Z,0.70
2023-02-04T19:32:27.477Z,0.60
2023-02-04T19:35:00.411Z,0.50
2023-02-04T19:37:32.649Z,0.50
2023-02-04T19:40:02.769Z,0.40
2023-02-04T19:42:33.740Z,0.30
2023-02-04T19:45:03.289Z,0.30
2023-02-04T19:47:41.774Z,0.30
2023-02-04T19:50:24.001Z,0.20
2023-02-04T19:52:53.681Z,0.20
2023-02-04T19:55:35.271Z,0.10
2023-02-04T19:58:15.236Z,0.10
2023-02-04T20:00:46.988Z,0.00
2023-02-04T20:03:35.742Z,0.00
2023-02-04T20:06:27.913Z,0.00
2023-02-04T20:08:58.288Z,0.00
2023-02-04T20:11:47.041Z,0.00
2023-02-04T20:14:47.509Z,0.00
2023-02-04T20:17:25.186Z,-0.10
2023-02-04T20:19:54.671Z,-0.10
2023-02-04T20:22:39.938Z,-0.10
2023-02-04T20:25:43.063Z,-0.10
2023-02-04T20:28:41.249Z,-0.20
2023-02-04T20:31:25.176Z,-0.20
2023-02-04T20:33:54.840Z,-0.20
2023-02-04T20:36:42.687Z,-0.20
2023-02-04T20:39:51.028Z,-0.20
2023-02-04T20:42:40.155Z,-0.20
2023-02-04T20:45:29.147Z,-0.20
2023-02-04T20:48:00.810Z,-0.20
2023-02-04T20:50:43.527Z,-0.20
2023-02-04T20:53:25.229Z,-0.20
2023-02-04T20:55:56.321Z,-0.20
2023-02-04T20:58:27.701Z,-0.30
2023-02-04T21:00:56.802Z,-0.30
2023-02-04T21:03:28.842Z,-0.30
2023-02-04T21:05:59.100Z,-0.30
2023-02-04T21:08:33.572Z,-0.20
2023-02-04T21:11:03.021Z,-0.20
2023-02-04T21:13:31.584Z,-0.20
2023-02-04T21:16:00.323Z,-0.10
2023-02-04T21:18:29.567Z,-0.10
2023-02-04T21:20:57.849Z,-0.10
2023-02-04T21:23:26.619Z,-0.10
2023-02-04T21:25:56.112Z,-0.10
2023-02-04T21:28:24.493Z,-0.10
2023-02-04T21:30:53.031Z,-0.10
2023-02-04T21:33:21.404Z,-0.10
2023-02-04T21:35:53.322Z,-0.10
2023-02-04T21:38:21.342Z,0.00
2023-02-04T21:40:49.496Z,-0.10
2023-02-04T21:43:19.600Z,0.00
2023-02-04T21:45:47.789Z,0.00
2023-02-04T21:48:16.151Z,0.00
2023-02-04T21:50:44.246Z,0.00
2023-02-04T21:53:12.825Z,0.00
2023-02-04T21:55:41.394Z,0.00
2023-02-04T21:58:09.687Z,-0.10
2023-02-04T22:00:39.826Z,0.00
2023-02-04T22:03:12.937Z,0.00
2023-02-04T22:05:41.162Z,-0.10
2023-02-04T22:08:09.407Z,0.00
2023-02-04T22:10:38.146Z,0.00
2023-02-04T22:13:06.695Z,0.00
2023-02-04T22:15:35.216Z,0.00
2023-02-04T22:18:05.087Z,0.10
2023-02-04T22:20:33.185Z,0.10
2023-02-04T22:23:01.184Z,0.10
2023-02-04T22:25:29.360Z,0.10
2023-02-04T22:27:57.476Z,0.10
2023-02-04T22:30:25.614Z,0.10
2023-02-04T22:32:54.824Z,0.00
2023-02-04T22:35:26.668Z,0.00
2023-02-04T22:37:55.348Z,-0.10
2023-02-04T22:40:23.359Z,-0.10
2023-02-04T22:42:51.526Z,-0.20
2023-02-04T22:45:19.957Z,-0.20
2023-02-04T22:47:47.980Z,-0.30
2023-02-04T22:50:16.575Z,-0.40
2023-02-04T22:52:46.054Z,-0.40
2023-02-04T22:55:14.272Z,-0.40
2023-02-04T22:57:42.254Z,-0.50
2023-02-04T23:00:11.777Z,-0.60
2023-02-04T23:02:40.188Z,-0.60
2023-02-04T23:05:09.040Z,-0.70
2023-02-04T23:07:38.034Z,-0.80
2023-02-04T23:10:08.784Z,-0.80
2023-02-04T23:12:36.862Z,-0.80
2023-02-04T23:15:05.775Z,-0.90
2023-02-04T23:17:33.818Z,-1.00
2023-02-04T23:20:01.828Z,-1.00
2023-02-04T23:22:29.866Z,-1.00
2023-02-04T23:24:58.323Z,-1.00
2023-02-04T23:27:27.992Z,-1.00
2023-02-04T23:29:55.984Z,-1.00
2023-02-04T23:32:26.979Z,-0.90
2023-02-04T23:34:55.113Z,-1.10
2023-02-04T23:37:23.083Z,-1.10
2023-02-04T23:39:51.464Z,-1.10
2023-02-04T23:42:19.639Z,-1.10
2023-02-04T23:44:49.097Z,-1.10
2023-02-04T23:47:17.145Z,-1.10
2023-02-04T23:49:45.106Z,-1.10
2023-02-04T23:52:14.182Z,-1.10
2023-02-04T23:54:42.593Z,-1.00
2023-02-04T23:57:11.589Z,-1.10
2023-02-04T23:59:41.946Z,-1.10
